createdAt,value
2023-04-13T00:01:33.181Z,1.13
2023-04-13T00:04:04.875Z,3.50
2023-04-13T00:06:31.642Z,1.77
2023-04-13T00:08:58.751Z,3.65
2023-04-13T00:11:28.161Z,0.85
2023-04-13T00:13:55.288Z,1.40
2023-04-13T00:16:22.284Z,0.70
2023-04-13T00:18:50.155Z,2.00
2023-04-13T00:21:17.058Z,0.90
2023-04-13T00:23:44.804Z,2.03
2023-04-13T00:26:11.200Z,1.50
2023-04-13T00:28:37.934Z,1.65
2023-04-13T00:31:04.500Z,1.40
2023-04-13T00:33:31.034Z,1.63
2023-04-13T00:35:57.421Z,1.95
2023-04-13T00:38:24.194Z,1.40
2023-04-13T00:40:50.603Z,2.85
2023-04-13T00:43:16.960Z,1.17
2023-04-13T00:45:43.421Z,2.13
2023-04-13T00:48:11.038Z,0.88
2023-04-13T00:50:37.915Z,1.60
2023-04-13T00:53:06.918Z,1.52
2023-04-13T00:55:38.588Z,3.25
2023-04-13T00:58:05.005Z,5.85
2023-04-13T01:00:31.431Z,3.40
2023-04-13T01:03:01.789Z,1.42
2023-04-13T01:05:31.839Z,2.10
2023-04-13T01:07:58.377Z,2.13
2023-04-13T01:10:38.214Z,3.40
2023-04-13T01:13:12.183Z,2.55
2023-04-13T01:15:41.386Z,1.88
2023-04-13T01:18:10.362Z,2.40
2023-04-13T01:20:38.076Z,1.08
2023-04-13T01:23:07.659Z,0.85
2023-04-13T01:25:38.322Z,2.10
2023-04-13T01:28:15.989Z,1.20
2023-04-13T01:30:44.780Z,1.13
2023-04-13T01:33:11.847Z,3.20
2023-04-13T01:35:40.890Z,2.42
2023-04-13T01:38:07.574Z,3.05
2023-04-13T01:40:36.871Z,2.17
2023-04-13T01:43:03.359Z,2.22
2023-04-13T01:45:45.963Z,2.03
2023-04-13T01:48:15.906Z,2.13
2023-04-13T01:50:45.250Z,3.28
2023-04-13T01:53:16.231Z,2.08
2023-04-13T01:55:43.849Z,1.50
2023-04-13T01:58:11.411Z,3.60
2023-04-13T02:00:40.463Z,4.00
2023-04-13T02:03:08.336Z,1.92
2023-04-13T02:05:37.689Z,3.05
2023-04-13T02:08:08.245Z,2.55
2023-04-13T02:10:36.207Z,2.20
2023-04-13T02:13:04.123Z,1.83
2023-04-13T02:15:37.245Z,1.17
2023-04-13T02:18:05.444Z,3.92
2023-04-13T02:20:40.401Z,1.45
2023-04-13T02:23:08.874Z,5.80
2023-04-13T02:25:37.716Z,1.35
2023-04-13T02:28:04.872Z,0.50
2023-04-13T02:30:31.291Z,1.20
2023-04-13T02:32:57.773Z,1.15
2023-04-13T02:35:27.323Z,2.95
2023-04-13T02:37:53.665Z,0.88
2023-04-13T02:40:20.857Z,0.57
2023-04-13T02:42:48.252Z,0.80
2023-04-13T02:45:18.337Z,2.30
2023-04-13T02:47:45.015Z,0.75
2023-04-13T02:50:12.048Z,0.35
2023-04-13T02:52:38.436Z,1.00
2023-04-13T02:55:11.151Z,1.35
2023-04-13T02:57:37.550Z,0.60
2023-04-13T03:00:10.333Z,0.82
2023-04-13T03:02:39.468Z,0.80
2023-04-13T03:05:06.289Z,0.50
2023-04-13T03:07:33.018Z,0.95
2023-04-13T03:10:01.374Z,0.82
2023-04-13T03:12:27.843Z,0.50
2023-04-13T03:14:54.186Z,0.43
2023-04-13T03:17:20.588Z,1.85
2023-04-13T03:19:47.524Z,1.20
2023-04-13T03:22:13.888Z,1.63
2023-04-13T03:24:40.255Z,3.63
2023-04-13T03:27:06.627Z,2.03
2023-04-13T03:29:33.093Z,1.45
2023-04-13T03:31:59.460Z,0.63
2023-04-13T03:34:25.987Z,0.90
2023-04-13T03:36:53.062Z,1.60
2023-04-13T03:39:19.413Z,3.83
2023-04-13T03:41:45.988Z,1.65
2023-04-13T03:44:12.314Z,0.93
2023-04-13T03:46:38.999Z,1.85
2023-04-13T03:49:08.953Z,0.88
2023-04-13T03:51:35.949Z,1.67
2023-04-13T03:54:02.420Z,2.75
2023-04-13T03:56:28.836Z,0.88
2023-04-13T03:58:55.533Z,0.52
2023-04-13T04:01:22.975Z,1.35
2023-04-13T04:03:49.517Z,3.60
2023-04-13T04:06:16.110Z,3.38
2023-04-13T04:08:43.891Z,0.77
2023-04-13T04:11:10.274Z,1.35
2023-04-13T04:13:36.702Z,1.52
2023-04-13T04:16:04.962Z,1.27
2023-04-13T04:18:31.534Z,1.30
2023-04-13T04:20:57.902Z,2.83
2023-04-13T04:23:28.213Z,0.95
2023-04-13T04:25:54.784Z,0.85
2023-04-13T04:28:22.104Z,1.88
2023-04-13T04:30:54.367Z,2.35
2023-04-13T04:33:26.809Z,2.47
2023-04-13T04:35:54.024Z,1.00
2023-04-13T04:38:22.246Z,1.48
2023-04-13T04:40:50.102Z,2.45
2023-04-13T04:43:16.824Z,2.15
2023-04-13T04:45:43.719Z,1.40
2023-04-13T04:48:11.841Z,1.23
2023-04-13T04:50:38.332Z,2.30
2023-04-13T04:53:06.977Z,3.92
2023-04-13T04:55:33.500Z,5.10
2023-04-13T04:57:59.845Z,5.53
2023-04-13T05:00:26.579Z,2.40
2023-04-13T05:02:53.224Z,2.47
2023-04-13T05:05:19.941Z,8.90
2023-04-13T05:07:48.672Z,11.40
2023-04-13T05:10:15.031Z,5.85
2023-04-13T05:12:41.538Z,3.70
2023-04-13T05:15:08.764Z,1.70
2023-04-13T05:17:36.436Z,4.53
2023-04-13T05:20:06.719Z,1.65
2023-04-13T05:22:33.295Z,1.27
2023-04-13T05:24:59.652Z,1.30
2023-04-13T05:27:26.016Z,2.15
2023-04-13T05:29:52.535Z,1.95
2023-04-13T05:32:18.932Z,2.45
2023-04-13T05:34:47.818Z,1.83
2023-04-13T05:37:15.510Z,1.98
2023-04-13T05:39:42.253Z,2.92
2023-04-13T05:42:08.854Z,2.65
2023-04-13T05:44:35.367Z,0.90
2023-04-13T05:47:02.528Z,1.55
2023-04-13T05:49:31.798Z,1.73
2023-04-13T05:51:58.525Z,2.10
2023-04-13T05:54:24.938Z,2.85
2023-04-13T05:56:51.366Z,1.63
2023-04-13T05:59:19.084Z,1.70
2023-04-13T06:01:46.363Z,0.82
2023-04-13T06:04:14.389Z,1.30
2023-04-13T06:06:40.928Z,2.63
2023-04-13T06:09:08.756Z,1.13
2023-04-13T06:11:37.826Z,1.30
2023-04-13T06:14:04.510Z,1.65
2023-04-13T06:16:30.978Z,1.73
2023-04-13T06:18:57.984Z,2.53
2023-04-13T06:21:25.894Z,1.85
2023-04-13T06:23:52.269Z,1.13
2023-04-13T06:26:19.451Z,2.83
2023-04-13T06:28:45.836Z,3.13
2023-04-13T06:31:13.680Z,2.15
2023-04-13T06:33:43.341Z,3.10
2023-04-13T06:36:09.935Z,2.28
2023-04-13T06:38:36.308Z,2.38
2023-04-13T06:41:03.228Z,1.80
2023-04-13T06:43:29.986Z,3.40
2023-04-13T06:46:00.212Z,4.15
2023-04-13T06:48:27.149Z,4.35
2023-04-13T06:50:57.058Z,3.78
2023-04-13T06:53:23.549Z,1.52
2023-04-13T06:55:50.014Z,1.25
2023-04-13T06:58:16.954Z,4.57
2023-04-13T07:00:43.344Z,0.88
2023-04-13T07:03:09.989Z,5.60
2023-04-13T07:05:38.985Z,1.98
2023-04-13T07:08:06.389Z,2.13
2023-04-13T07:10:32.869Z,2.53
2023-04-13T07:12:59.238Z,2.47
2023-04-13T07:15:25.652Z,0.63
2023-04-13T07:17:52.471Z,1.60
2023-04-13T07:20:19.023Z,1.70
2023-04-13T07:22:45.416Z,0.82
2023-04-13T07:25:11.790Z,1.05
2023-04-13T07:27:38.110Z,1.58
2023-04-13T07:30:04.804Z,1.02
2023-04-13T07:32:31.685Z,1.45
2023-04-13T07:35:01.969Z,0.80
2023-04-13T07:37:28.938Z,1.50
2023-04-13T07:39:55.287Z,4.20
2023-04-13T07:42:21.735Z,1.77
2023-04-13T07:44:48.096Z,0.88
2023-04-13T07:47:14.680Z,3.25
2023-04-13T07:49:41.111Z,0.75
2023-04-13T07:52:07.491Z,0.60
2023-04-13T07:54:35.045Z,1.52
2023-04-13T07:57:02.989Z,1.95
2023-04-13T07:59:29.910Z,1.38
2023-04-13T08:01:56.449Z,2.25
2023-04-13T08:04:23.011Z,2.30
2023-04-13T08:06:49.523Z,3.30
2023-04-13T08:09:15.928Z,2.45
2023-04-13T08:11:42.528Z,0.98
2023-04-13T08:14:09.891Z,1.88
2023-04-13T08:16:36.468Z,2.75
2023-04-13T08:19:03.142Z,3.53
2023-04-13T08:21:30.028Z,2.47
2023-04-13T08:23:56.980Z,2.67
2023-04-13T08:26:24.494Z,1.75
2023-04-13T08:28:52.944Z,1.55
2023-04-13T08:31:19.455Z,2.13
2023-04-13T08:33:45.842Z,3.35
2023-04-13T08:36:12.396Z,2.97
2023-04-13T08:38:38.780Z,1.80
2023-04-13T08:41:05.674Z,1.75
2023-04-13T08:43:38.053Z,3.63
2023-04-13T08:46:07.808Z,1.77
2023-04-13T08:48:46.410Z,3.65
2023-04-13T08:51:21.282Z,2.40
2023-04-13T08:53:47.956Z,6.03
2023-04-13T08:56:14.822Z,1.73
2023-04-13T08:58:44.031Z,5.82
2023-04-13T09:01:14.041Z,6.43
2023-04-13T09:03:48.742Z,4.72
2023-04-13T09:06:18.722Z,4.40
2023-04-13T09:08:46.311Z,3.50
2023-04-13T09:11:13.568Z,2.60
2023-04-13T09:13:39.940Z,1.42
2023-04-13T09:16:06.558Z,3.65
2023-04-13T09:18:33.662Z,1.45
2023-04-13T09:21:00.365Z,4.07
2023-04-13T09:23:26.926Z,1.92
2023-04-13T09:26:13.539Z,3.17
2023-04-13T09:28:49.607Z,3.20
2023-04-13T09:31:16.456Z,3.88
2023-04-13T09:33:46.708Z,4.22
2023-04-13T09:36:13.909Z,9.50
2023-04-13T09:38:42.405Z,3.63
2023-04-13T09:41:08.796Z,4.03
2023-04-13T09:43:36.644Z,3.45
2023-04-13T09:46:03.356Z,2.97
2023-04-13T09:48:30.601Z,4.28
2023-04-13T09:51:05.363Z,4.68
2023-04-13T09:53:47.183Z,3.35
2023-04-13T09:56:14.067Z,6.97
2023-04-13T09:58:44.860Z,3.85
2023-04-13T10:01:11.763Z,3.70
2023-04-13T10:03:38.475Z,4.15
2023-04-13T10:06:06.498Z,1.38
2023-04-13T10:08:38.550Z,3.13
2023-04-13T10:11:11.419Z,3.33
2023-04-13T10:13:42.765Z,3.55
2023-04-13T10:16:12.738Z,3.92
2023-04-13T10:19:08.857Z,3.28
2023-04-13T10:21:40.126Z,4.35
2023-04-13T10:26:37.468Z,3.15
2023-04-13T10:29:04.385Z,1.65
2023-04-13T10:31:38.029Z,5.43
2023-04-13T10:34:05.844Z,2.33
2023-04-13T10:36:37.813Z,4.10
2023-04-13T10:39:04.232Z,6.60
2023-04-13T10:41:30.629Z,3.58
2023-04-13T10:44:04.215Z,5.13
2023-04-13T10:46:31.016Z,2.83
2023-04-13T10:48:59.657Z,4.78
2023-04-13T10:51:27.526Z,2.58
2023-04-13T10:54:03.432Z,3.72
2023-04-13T10:56:29.874Z,4.65
2023-04-13T10:58:56.504Z,4.30
2023-04-13T11:01:22.978Z,3.30
2023-04-13T11:04:03.610Z,4.22
2023-04-13T11:06:37.927Z,2.95
2023-04-13T11:09:06.841Z,4.13
2023-04-13T11:11:36.078Z,4.63
2023-04-13T11:14:04.649Z,3.85
2023-04-13T11:16:31.275Z,2.70
2023-04-13T11:19:01.991Z,3.67
2023-04-13T11:21:28.387Z,3.00
2023-04-13T11:23:55.323Z,12.63
2023-04-13T11:26:31.585Z,2.22
2023-04-13T11:28:58.238Z,5.32
2023-04-13T11:31:41.002Z,2.88
2023-04-13T11:34:11.393Z,3.50
2023-04-13T11:36:40.539Z,2.38
2023-04-13T11:39:14.774Z,4.57
2023-04-13T11:41:44.345Z,4.88
2023-04-13T11:44:13.942Z,6.75
2023-04-13T11:46:40.409Z,3.42
2023-04-13T11:49:07.257Z,2.95
2023-04-13T11:51:33.791Z,3.78
2023-04-13T11:54:00.987Z,3.17
2023-04-13T11:56:27.626Z,7.72
2023-04-13T11:58:57.049Z,4.20
2023-04-13T12:01:27.099Z,4.10
2023-04-13T12:06:35.225Z,7.05
2023-04-13T12:09:10.291Z,3.63
2023-04-13T12:11:43.885Z,2.83
2023-04-13T12:14:45.062Z,3.25
2023-04-13T12:17:34.919Z,3.80
2023-04-13T12:19:57.555Z,2.88
2023-04-13T12:22:24.587Z,6.28
2023-04-13T12:24:51.325Z,3.45
2023-04-13T12:27:19.340Z,2.67
2023-04-13T12:29:45.999Z,4.97
2023-04-13T12:32:16.395Z,4.28
2023-04-13T12:34:43.524Z,5.20
2023-04-13T12:37:13.015Z,2.65
2023-04-13T12:39:39.488Z,1.70
2023-04-13T12:42:06.213Z,5.10
2023-04-13T12:44:34.366Z,3.15
2023-04-13T12:47:01.266Z,4.00
2023-04-13T12:49:27.833Z,2.20
2023-04-13T12:51:54.276Z,4.65
2023-04-13T12:54:20.749Z,3.80
2023-04-13T12:56:47.139Z,3.22
2023-04-13T12:59:16.710Z,3.60
2023-04-13T13:01:43.141Z,3.85
2023-04-13T13:04:09.705Z,3.38
2023-04-13T13:06:36.176Z,4.07
2023-04-13T13:09:02.626Z,3.47
2023-04-13T13:11:29.064Z,2.83
2023-04-13T13:13:55.751Z,2.55
2023-04-13T13:16:24.749Z,6.20
2023-04-13T13:18:51.957Z,4.75
2023-04-13T13:21:21.721Z,5.68
2023-04-13T13:23:48.244Z,7.38
2023-04-13T13:28:44.688Z,2.75
2023-04-13T13:31:12.744Z,2.72
2023-04-13T13:33:41.697Z,2.20
2023-04-13T13:36:08.180Z,5.68
2023-04-13T13:38:36.395Z,3.75
2023-04-13T13:41:03.253Z,1.55
2023-04-13T13:43:32.540Z,4.15
2023-04-13T13:45:59.236Z,4.30
2023-04-13T13:48:25.897Z,3.63
2023-04-13T13:50:52.294Z,9.10
2023-04-13T13:53:18.698Z,2.75
2023-04-13T13:55:45.169Z,2.72
2023-04-13T13:58:11.630Z,3.22
2023-04-13T14:00:38.132Z,5.90
2023-04-13T14:03:07.910Z,4.07
2023-04-13T14:05:34.628Z,4.18
2023-04-13T14:08:03.702Z,3.33
2023-04-13T14:10:30.300Z,3.33
2023-04-13T14:12:56.711Z,4.20
2023-04-13T14:15:23.173Z,4.38
2023-04-13T14:18:06.499Z,7.53
2023-04-13T14:20:38.876Z,3.10
2023-04-13T14:23:05.792Z,5.82
2023-04-13T14:25:32.214Z,3.53
2023-04-13T14:27:58.649Z,3.97
2023-04-13T14:30:27.482Z,3.53
2023-04-13T14:32:56.917Z,3.85
2023-04-13T14:35:26.575Z,2.97
2023-04-13T14:37:53.118Z,3.42
2023-04-13T14:40:22.351Z,5.20
2023-04-13T14:42:50.908Z,6.85
2023-04-13T14:45:17.789Z,4.80
2023-04-13T14:47:44.399Z,3.55
2023-04-13T14:50:11.649Z,2.83
2023-04-13T14:52:38.133Z,4.05
2023-04-13T14:55:04.856Z,6.68
2023-04-13T14:57:33.717Z,4.18
2023-04-13T15:00:00.237Z,4.05
2023-04-13T15:02:27.576Z,3.70
2023-04-13T15:04:54.607Z,3.50
2023-04-13T15:07:21.736Z,2.15
2023-04-13T15:09:48.978Z,1.15
2023-04-13T15:12:15.596Z,2.70
2023-04-13T15:14:46.661Z,4.32
2023-04-13T15:17:13.405Z,4.88
2023-04-13T15:19:40.315Z,3.67
2023-04-13T15:22:06.729Z,3.85
2023-04-13T15:24:33.166Z,3.17
2023-04-13T15:26:59.584Z,1.90
2023-04-13T15:29:27.007Z,5.10
2023-04-13T15:31:54.048Z,3.67
2023-04-13T15:34:20.578Z,3.20
2023-04-13T15:36:47.600Z,2.53
2023-04-13T15:39:14.065Z,3.00
2023-04-13T15:41:40.631Z,2.83
2023-04-13T15:44:07.299Z,2.47
2023-04-13T15:46:33.918Z,2.47
2023-04-13T15:49:00.671Z,2.30
2023-04-13T15:51:28.097Z,4.65
2023-04-13T15:53:54.585Z,5.35
2023-04-13T15:56:21.288Z,5.53
2023-04-13T15:58:49.932Z,2.58
2023-04-13T16:01:16.540Z,5.90
2023-04-13T16:03:43.220Z,8.90
2023-04-13T16:06:10.844Z,5.57
2023-04-13T16:08:39.452Z,4.15
2023-04-13T16:11:06.780Z,3.28
2023-04-13T16:13:48.614Z,4.25
2023-04-13T16:16:18.891Z,4.50
2023-04-13T16:18:45.687Z,5.38
2023-04-13T16:21:12.749Z,8.85
2023-04-13T16:23:39.166Z,4.15
2023-04-13T16:26:06.476Z,7.47
2023-04-13T16:28:34.466Z,3.25
2023-04-13T16:31:00.936Z,4.00
2023-04-13T16:33:27.692Z,4.80
2023-04-13T16:35:54.147Z,3.10
2023-04-13T16:38:20.676Z,4.45
2023-04-13T16:40:47.160Z,12.73
2023-04-13T16:43:16.511Z,7.95
2023-04-13T16:45:43.937Z,3.80
2023-04-13T16:48:10.627Z,34.05
2023-04-13T16:50:37.167Z,15.90
2023-04-13T16:53:03.632Z,226.57
2023-04-13T16:55:32.483Z,198.00
2023-04-13T16:57:58.920Z,61.53
2023-04-13T17:00:25.383Z,29.90
2023-04-13T17:02:51.945Z,21.48
2023-04-13T17:05:18.459Z,5.30
2023-04-13T17:07:47.820Z,3.40
2023-04-13T17:10:14.636Z,3.88
2023-04-13T17:12:41.250Z,5.43
2023-04-13T17:15:08.150Z,7.65
2023-04-13T17:17:34.697Z,5.57
2023-04-13T17:20:01.695Z,3.28
2023-04-13T17:22:28.656Z,3.80
2023-04-13T17:24:55.335Z,3.72
2023-04-13T17:27:21.723Z,4.88
2023-04-13T17:29:49.667Z,6.05
2023-04-13T17:32:21.345Z,4.53
2023-04-13T17:34:48.539Z,6.60
2023-04-13T17:37:15.688Z,3.22
2023-04-13T17:39:47.362Z,6.97
2023-04-13T17:42:14.459Z,4.25
2023-04-13T17:44:40.903Z,1.90
2023-04-13T17:47:07.246Z,3.75
2023-04-13T17:49:36.085Z,5.15
2023-04-13T17:52:02.488Z,4.13
2023-04-13T17:54:29.084Z,5.70
2023-04-13T17:56:55.823Z,7.32
2023-04-13T17:59:22.434Z,5.07
2023-04-13T18:01:52.481Z,8.50
2023-04-13T18:04:19.721Z,5.85
2023-04-13T18:06:46.535Z,11.60
2023-04-13T18:09:13.337Z,4.78
2023-04-13T18:11:40.007Z,6.95
2023-04-13T18:14:08.213Z,4.28
2023-04-13T18:16:37.690Z,3.90
2023-04-13T18:19:04.184Z,5.47
2023-04-13T18:21:32.405Z,4.80
2023-04-13T18:24:01.343Z,6.10
2023-04-13T18:26:28.432Z,3.65
2023-04-13T18:28:54.941Z,5.15
2023-04-13T18:31:23.688Z,6.45
2023-04-13T18:33:52.623Z,3.95
2023-04-13T18:36:19.089Z,4.68
2023-04-13T18:38:46.107Z,6.80
2023-04-13T18:41:12.710Z,7.32
2023-04-13T18:43:39.715Z,3.17
2023-04-13T18:46:07.567Z,5.72
2023-04-13T18:48:34.252Z,4.15
2023-04-13T18:51:01.281Z,6.85
2023-04-13T18:53:28.474Z,4.72
2023-04-13T18:55:54.921Z,8.45
2023-04-13T18:58:23.690Z,4.93
2023-04-13T19:00:50.246Z,5.93
2023-04-13T19:03:16.793Z,4.38
2023-04-13T19:05:43.432Z,3.50
2023-04-13T19:08:13.238Z,7.15
2023-04-13T19:10:42.218Z,4.13
2023-04-13T19:13:08.600Z,4.35
2023-04-13T19:15:35.767Z,4.18
2023-04-13T19:18:03.999Z,2.22
2023-04-13T19:20:30.490Z,5.20
2023-04-13T19:22:56.965Z,7.05
2023-04-13T19:25:23.403Z,7.75
2023-04-13T19:27:50.268Z,3.95
2023-04-13T19:30:18.286Z,3.22
2023-04-13T19:32:46.011Z,3.03
2023-04-13T19:35:13.043Z,4.95
2023-04-13T19:37:40.075Z,6.72
2023-04-13T19:40:15.781Z,3.67
2023-04-13T19:42:42.990Z,6.40
2023-04-13T19:45:09.954Z,3.30
2023-04-13T19:47:37.300Z,6.70
2023-04-13T19:50:04.301Z,5.28
2023-04-13T19:52:31.075Z,4.30
2023-04-13T19:54:57.849Z,6.68
2023-04-13T19:57:26.912Z,5.60
2023-04-13T19:59:53.351Z,3.55
2023-04-13T20:02:20.111Z,4.25
2023-04-13T20:04:50.047Z,3.35
2023-04-13T20:07:17.604Z,2.63
2023-04-13T20:09:44.120Z,5.65
2023-04-13T20:12:12.977Z,4.35
2023-04-13T20:14:42.518Z,3.70
2023-04-13T20:17:09.192Z,7.53
2023-04-13T20:19:36.508Z,6.90
2023-04-13T20:22:04.027Z,8.05
2023-04-13T20:24:30.916Z,7.57
2023-04-13T20:26:57.612Z,10.65
2023-04-13T20:29:26.847Z,11.90
2023-04-13T20:31:53.729Z,8.60
2023-04-13T20:34:20.593Z,5.72
2023-04-13T20:36:47.482Z,7.60
2023-04-13T20:39:14.023Z,9.60
2023-04-13T20:41:40.496Z,7.13
2023-04-13T20:44:09.936Z,5.63
2023-04-13T20:46:37.522Z,7.50
2023-04-13T20:49:05.081Z,5.40
2023-04-13T20:51:34.291Z,7.20
2023-04-13T20:54:02.753Z,7.22
2023-04-13T20:56:29.935Z,15.38
2023-04-13T20:58:57.887Z,11.23
2023-04-13T21:01:27.191Z,9.95
2023-04-13T21:03:53.752Z,4.47
2023-04-13T21:06:22.595Z,3.63
2023-04-13T21:08:49.180Z,5.82
2023-04-13T21:11:15.655Z,5.47
2023-04-13T21:13:41.995Z,2.72
2023-04-13T21:16:09.088Z,5.40
2023-04-13T21:18:36.711Z,6.93
2023-04-13T21:21:05.322Z,7.53
2023-04-13T21:23:31.791Z,6.20
2023-04-13T21:25:58.189Z,5.82
2023-04-13T21:28:24.677Z,5.43
2023-04-13T21:30:51.383Z,8.77
2023-04-13T21:33:18.019Z,6.40
2023-04-13T21:35:44.433Z,4.97
2023-04-13T21:38:10.778Z,4.13
2023-04-13T21:40:37.128Z,4.93
2023-04-13T21:43:03.575Z,4.50
2023-04-13T21:45:29.956Z,5.70
2023-04-13T21:47:56.527Z,6.07
2023-04-13T21:50:22.956Z,3.78
2023-04-13T21:52:49.417Z,5.10
2023-04-13T21:55:18.139Z,4.28
2023-04-13T21:57:45.328Z,4.07
2023-04-13T22:00:12.369Z,4.55
2023-04-13T22:02:39.298Z,3.95
2023-04-13T22:05:06.614Z,4.40
2023-04-13T22:07:42.445Z,7.45
2023-04-13T22:10:09.707Z,4.90
2023-04-13T22:12:36.164Z,6.07
2023-04-13T22:15:02.535Z,4.50
2023-04-13T22:17:28.985Z,5.25
2023-04-13T22:19:55.891Z,4.65
2023-04-13T22:22:22.246Z,4.80
2023-04-13T22:24:53.072Z,6.13
2023-04-13T22:27:19.459Z,9.30
2023-04-13T22:29:47.389Z,6.22
2023-04-13T22:32:14.086Z,8.00
2023-04-13T22:34:40.483Z,5.60
2023-04-13T22:37:07.034Z,8.00
2023-04-13T22:39:33.423Z,6.82
2023-04-13T22:41:59.878Z,7.30
2023-04-13T22:44:31.565Z,5.93
2023-04-13T22:46:58.006Z,6.43
2023-04-13T22:49:24.446Z,5.20
2023-04-13T22:51:50.867Z,5.97
2023-04-13T22:54:17.388Z,5.97
2023-04-13T22:56:46.924Z,7.75
2023-04-13T22:59:13.280Z,9.10
2023-04-13T23:01:39.662Z,6.38
2023-04-13T23:04:06.417Z,8.23
2023-04-13T23:06:36.032Z,7.90
2023-04-13T23:09:02.591Z,5.35
2023-04-13T23:11:29.708Z,7.30
2023-04-13T23:13:56.073Z,6.50
2023-04-13T23:16:22.556Z,7.55
2023-04-13T23:18:48.961Z,5.88
2023-04-13T23:21:15.657Z,9.50
2023-04-13T23:23:41.988Z,7.85
2023-04-13T23:26:08.383Z,9.07
2023-04-13T23:28:34.721Z,7.65
2023-04-13T23:31:07.718Z,5.82
2023-04-13T23:33:34.420Z,6.30
2023-04-13T23:36:01.615Z,7.43
2023-04-13T23:38:28.331Z,9.65
2023-04-13T23:40:54.919Z,10.20
2023-04-13T23:43:24.134Z,6.53
2023-04-13T23:45:52.111Z,9.25
2023-04-13T23:48:19.144Z,8.73
2023-04-13T23:50:45.536Z,9.88
2023-04-13T23:53:12.020Z,6.00
2023-04-13T23:55:39.900Z,9.18
2023-04-13T23:58:06.361Z,6.18
